Rio Grande, Ohio
Current Conditions -  °F | °C
As of 9:15 PM on Sunday 25 Jan 2015 (Local Time) from K3I2 Reporting Station
Light Rain Light Rain  
Wind Chill:   Ceiling: 3300
Heat Index:   Visibility: 4mi
Dew Point:   Wind: 0mph
Humidity: 100%   Direction: NA
Pressure: 29.75"   Gusts: NA
Location:  38.88°N, 82.38°W
Report Text: K3I2 260215Z AUTO 00000KT 4SM -RA OVC033 03/03 A2975 RMK AO2
Loading
Personal Weather Stations






























Interactive Weather Map New forecast layout! Learn more

10-Day Weather Forecast

Advertisements
Track Severe Weather on mobile